sensor_id;sensor_type;location;lat;lon;timestamp;P1;durP1;ratioP1;P2;durP2;ratioP2
11709;SDS011;5911;51.036;6.972;2022-09-30T00:01:02;7.40;;;5.60;;
11709;SDS011;5911;51.036;6.972;2022-09-30T00:03:30;6.13;;;5.43;;
11709;SDS011;5911;51.036;6.972;2022-09-30T00:05:58;6.37;;;5.30;;
11709;SDS011;5911;51.036;6.972;2022-09-30T00:08:33;9.00;;;5.60;;
11709;SDS011;5911;51.036;6.972;2022-09-30T00:11:02;6.63;;;5.60;;
11709;SDS011;5911;51.036;6.972;2022-09-30T00:13:33;6.33;;;5.53;;
11709;SDS011;5911;51.036;6.972;2022-09-30T00:16:04;7.27;;;5.17;;
11709;SDS011;5911;51.036;6.972;2022-09-30T00:18:33;6.20;;;5.37;;
11709;SDS011;5911;51.036;6.972;2022-09-30T00:21:02;6.00;;;5.40;;
11709;SDS011;5911;51.036;6.972;2022-09-30T00:23:30;5.80;;;4.97;;
11709;SDS011;5911;51.036;6.972;2022-09-30T00:25:58;7.17;;;5.10;;
11709;SDS011;5911;51.036;6.972;2022-09-30T00:28:27;6.23;;;5.50;;
11709;SDS011;5911;51.036;6.972;2022-09-30T00:30:58;5.37;;;4.87;;
11709;SDS011;5911;51.036;6.972;2022-09-30T00:33:27;6.03;;;4.80;;
11709;SDS011;5911;51.036;6.972;2022-09-30T00:35:55;6.13;;;4.87;;
11709;SDS011;5911;51.036;6.972;2022-09-30T00:38:23;5.87;;;5.03;;
11709;SDS011;5911;51.036;6.972;2022-09-30T00:40:51;7.63;;;5.27;;
11709;SDS011;5911;51.036;6.972;2022-09-30T00:43:19;7.00;;;5.30;;
11709;SDS011;5911;51.036;6.972;2022-09-30T00:46:10;5.30;;;4.80;;
11709;SDS011;5911;51.036;6.972;2022-09-30T00:48:45;5.70;;;5.20;;
11709;SDS011;5911;51.036;6.972;2022-09-30T00:51:19;7.13;;;4.87;;
11709;SDS011;5911;51.036;6.972;2022-09-30T00:53:51;5.07;;;4.37;;
11709;SDS011;5911;51.036;6.972;2022-09-30T00:56:23;5.83;;;5.10;;
11709;SDS011;5911;51.036;6.972;2022-09-30T00:58:54;5.57;;;4.80;;
11709;SDS011;5911;51.036;6.972;2022-09-30T01:01:27;6.57;;;4.80;;
11709;SDS011;5911;51.036;6.972;2022-09-30T01:03:55;6.90;;;4.67;;
11709;SDS011;5911;51.036;6.972;2022-09-30T01:06:27;6.10;;;4.73;;
11709;SDS011;5911;51.036;6.972;2022-09-30T01:08:56;5.93;;;4.53;;
11709;SDS011;5911;51.036;6.972;2022-09-30T01:11:25;5.53;;;4.77;;
11709;SDS011;5911;51.036;6.972;2022-09-30T01:13:55;5.57;;;4.63;;
11709;SDS011;5911;51.036;6.972;2022-09-30T01:16:34;5.50;;;4.43;;
11709;SDS011;5911;51.036;6.972;2022-09-30T01:19:19;4.93;;;4.43;;
11709;SDS011;5911;51.036;6.972;2022-09-30T01:21:58;5.30;;;4.80;;
11709;SDS011;5911;51.036;6.972;2022-09-30T01:24:37;7.10;;;5.20;;
11709;SDS011;5911;51.036;6.972;2022-09-30T01:30:14;5.13;;;4.73;;
11709;SDS011;5911;51.036;6.972;2022-09-30T01:38:42;10.80;;;5.53;;
11709;SDS011;5911;51.036;6.972;2022-09-30T01:41:19;6.40;;;5.13;;
11709;SDS011;5911;51.036;6.972;2022-09-30T01:43:55;5.97;;;5.37;;
11709;SDS011;5911;51.036;6.972;2022-09-30T01:46:31;6.97;;;5.20;;
11709;SDS011;5911;51.036;6.972;2022-09-30T01:49:06;8.97;;;5.57;;
11709;SDS011;5911;51.036;6.972;2022-09-30T01:51:41;6.13;;;5.43;;
11709;SDS011;5911;51.036;6.972;2022-09-30T01:54:12;7.37;;;5.30;;
11709;SDS011;5911;51.036;6.972;2022-09-30T01:56:46;6.83;;;5.20;;
11709;SDS011;5911;51.036;6.972;2022-09-30T01:59:20;7.00;;;5.27;;
11709;SDS011;5911;51.036;6.972;2022-09-30T02:01:51;6.80;;;5.40;;
11709;SDS011;5911;51.036;6.972;2022-09-30T02:04:25;8.20;;;5.90;;
11709;SDS011;5911;51.036;6.972;2022-09-30T02:06:58;8.03;;;7.03;;
11709;SDS011;5911;51.036;6.972;2022-09-30T02:09:31;6.70;;;5.90;;
11709;SDS011;5911;51.036;6.972;2022-09-30T02:12:06;6.23;;;5.63;;
11709;SDS011;5911;51.036;6.972;2022-09-30T02:14:39;6.43;;;5.17;;
11709;SDS011;5911;51.036;6.972;2022-09-30T02:17:11;9.10;;;4.87;;
11709;SDS011;5911;51.036;6.972;2022-09-30T02:19:46;7.03;;;5.17;;
11709;SDS011;5911;51.036;6.972;2022-09-30T02:22:19;5.40;;;4.90;;
11709;SDS011;5911;51.036;6.972;2022-09-30T02:24:54;5.20;;;4.70;;
11709;SDS011;5911;51.036;6.972;2022-09-30T02:27:26;5.97;;;4.50;;
11709;SDS011;5911;51.036;6.972;2022-09-30T02:29:58;6.00;;;4.57;;
11709;SDS011;5911;51.036;6.972;2022-09-30T02:32:29;5.67;;;4.30;;
11709;SDS011;5911;51.036;6.972;2022-09-30T02:35:04;5.23;;;4.40;;
11709;SDS011;5911;51.036;6.972;2022-09-30T02:37:38;7.27;;;5.37;;
11709;SDS011;5911;51.036;6.972;2022-09-30T02:40:09;6.53;;;4.23;;
11709;SDS011;5911;51.036;6.972;2022-09-30T02:42:42;6.00;;;4.20;;
11709;SDS011;5911;51.036;6.972;2022-09-30T02:45:13;5.13;;;4.50;;
11709;SDS011;5911;51.036;6.972;2022-09-30T02:47:48;6.53;;;4.50;;
11709;SDS011;5911;51.036;6.972;2022-09-30T02:50:28;5.50;;;4.13;;
11709;SDS011;5911;51.036;6.972;2022-09-30T02:53:05;5.17;;;4.77;;
11709;SDS011;5911;51.036;6.972;2022-09-30T02:55:52;5.00;;;4.50;;
11709;SDS011;5911;51.036;6.972;2022-09-30T02:58:34;5.03;;;4.53;;
11709;SDS011;5911;51.036;6.972;2022-09-30T03:01:05;6.50;;;4.20;;
11709;SDS011;5911;51.036;6.972;2022-09-30T03:03:34;4.87;;;4.40;;
11709;SDS011;5911;51.036;6.972;2022-09-30T03:06:08;5.93;;;5.07;;
11709;SDS011;5911;51.036;6.972;2022-09-30T03:08:36;5.27;;;4.77;;
11709;SDS011;5911;51.036;6.972;2022-09-30T03:11:04;6.03;;;4.70;;
11709;SDS011;5911;51.036;6.972;2022-09-30T03:19:59;6.47;;;5.00;;
11709;SDS011;5911;51.036;6.972;2022-09-30T03:22:46;5.03;;;4.57;;
11709;SDS011;5911;51.036;6.972;2022-09-30T03:25:28;6.33;;;4.93;;
11709;SDS011;5911;51.036;6.972;2022-09-30T03:28:09;6.67;;;4.80;;
11709;SDS011;5911;51.036;6.972;2022-09-30T03:30:54;6.30;;;4.50;;
11709;SDS011;5911;51.036;6.972;2022-09-30T03:33:30;5.73;;;4.90;;
11709;SDS011;5911;51.036;6.972;2022-09-30T03:36:08;9.03;;;5.07;;
11709;SDS011;5911;51.036;6.972;2022-09-30T03:38:45;6.07;;;4.70;;
11709;SDS011;5911;51.036;6.972;2022-09-30T03:41:18;7.70;;;5.57;;
11709;SDS011;5911;51.036;6.972;2022-09-30T03:43:55;7.50;;;5.30;;
11709;SDS011;5911;51.036;6.972;2022-09-30T03:46:29;6.03;;;5.23;;
11709;SDS011;5911;51.036;6.972;2022-09-30T03:49:02;5.97;;;5.10;;
11709;SDS011;5911;51.036;6.972;2022-09-30T03:51:33;7.53;;;5.00;;
11709;SDS011;5911;51.036;6.972;2022-09-30T03:54:06;6.77;;;5.17;;
11709;SDS011;5911;51.036;6.972;2022-09-30T03:56:36;6.93;;;5.73;;
11709;SDS011;5911;51.036;6.972;2022-09-30T03:59:08;7.87;;;5.60;;
11709;SDS011;5911;51.036;6.972;2022-09-30T04:01:38;6.30;;;5.10;;
11709;SDS011;5911;51.036;6.972;2022-09-30T04:04:06;7.63;;;5.30;;
11709;SDS011;5911;51.036;6.972;2022-09-30T04:06:34;7.87;;;5.43;;
11709;SDS011;5911;51.036;6.972;2022-09-30T04:09:01;7.00;;;5.27;;
11709;SDS011;5911;51.036;6.972;2022-09-30T04:11:30;7.70;;;4.90;;
11709;SDS011;5911;51.036;6.972;2022-09-30T04:13:58;8.33;;;5.33;;
11709;SDS011;5911;51.036;6.972;2022-09-30T04:16:27;5.30;;;4.57;;
11709;SDS011;5911;51.036;6.972;2022-09-30T04:18:55;6.50;;;5.20;;
11709;SDS011;5911;51.036;6.972;2022-09-30T04:21:23;6.13;;;4.87;;
11709;SDS011;5911;51.036;6.972;2022-09-30T04:23:54;6.37;;;4.47;;
11709;SDS011;5911;51.036;6.972;2022-09-30T04:26:22;8.87;;;4.90;;
11709;SDS011;5911;51.036;6.972;2022-09-30T04:28:51;7.90;;;4.73;;
11709;SDS011;5911;51.036;6.972;2022-09-30T04:31:20;5.80;;;4.70;;
11709;SDS011;5911;51.036;6.972;2022-09-30T04:33:47;6.93;;;4.80;;
11709;SDS011;5911;51.036;6.972;2022-09-30T04:36:15;5.67;;;4.47;;
11709;SDS011;5911;51.036;6.972;2022-09-30T04:38:43;5.30;;;4.20;;
11709;SDS011;5911;51.036;6.972;2022-09-30T04:41:12;6.20;;;4.70;;
11709;SDS011;5911;51.036;6.972;2022-09-30T04:43:43;5.23;;;4.40;;
11709;SDS011;5911;51.036;6.972;2022-09-30T04:46:13;4.93;;;4.47;;
11709;SDS011;5911;51.036;6.972;2022-09-30T04:48:44;5.67;;;4.53;;
11709;SDS011;5911;51.036;6.972;2022-09-30T04:51:13;4.90;;;4.43;;
11709;SDS011;5911;51.036;6.972;2022-09-30T04:53:41;5.33;;;4.10;;
11709;SDS011;5911;51.036;6.972;2022-09-30T04:56:10;6.17;;;4.70;;
11709;SDS011;5911;51.036;6.972;2022-09-30T04:58:38;8.07;;;5.00;;
11709;SDS011;5911;51.036;6.972;2022-09-30T05:01:06;4.60;;;4.20;;
11709;SDS011;5911;51.036;6.972;2022-09-30T05:03:37;7.30;;;4.90;;
11709;SDS011;5911;51.036;6.972;2022-09-30T05:06:06;7.73;;;4.97;;
11709;SDS011;5911;51.036;6.972;2022-09-30T05:08:34;7.57;;;4.70;;
11709;SDS011;5911;51.036;6.972;2022-09-30T05:11:05;8.13;;;5.03;;
11709;SDS011;5911;51.036;6.972;2022-09-30T05:13:36;6.27;;;4.77;;
11709;SDS011;5911;51.036;6.972;2022-09-30T05:16:06;5.93;;;4.90;;
11709;SDS011;5911;51.036;6.972;2022-09-30T05:18:35;5.27;;;4.77;;
11709;SDS011;5911;51.036;6.972;2022-09-30T05:21:06;7.13;;;5.30;;
11709;SDS011;5911;51.036;6.972;2022-09-30T05:23:34;9.83;;;5.00;;
11709;SDS011;5911;51.036;6.972;2022-09-30T05:26:02;7.13;;;5.03;;
11709;SDS011;5911;51.036;6.972;2022-09-30T05:28:37;6.40;;;5.13;;
11709;SDS011;5911;51.036;6.972;2022-09-30T05:31:05;6.03;;;5.43;;
11709;SDS011;5911;51.036;6.972;2022-09-30T05:33:33;8.03;;;5.67;;
11709;SDS011;5911;51.036;6.972;2022-09-30T05:36:04;6.10;;;5.17;;
11709;SDS011;5911;51.036;6.972;2022-09-30T05:38:33;7.73;;;5.10;;
11709;SDS011;5911;51.036;6.972;2022-09-30T05:41:05;6.87;;;5.43;;
11709;SDS011;5911;51.036;6.972;2022-09-30T05:43:33;7.23;;;4.60;;
11709;SDS011;5911;51.036;6.972;2022-09-30T05:46:04;8.67;;;4.77;;
11709;SDS011;5911;51.036;6.972;2022-09-30T05:48:32;6.03;;;4.90;;
11709;SDS011;5911;51.036;6.972;2022-09-30T05:51:00;6.20;;;4.97;;
11709;SDS011;5911;51.036;6.972;2022-09-30T05:53:29;5.70;;;4.70;;
11709;SDS011;5911;51.036;6.972;2022-09-30T05:55:58;6.00;;;5.13;;
11709;SDS011;5911;51.036;6.972;2022-09-30T05:58:26;6.23;;;4.87;;
11709;SDS011;5911;51.036;6.972;2022-09-30T06:00:54;9.27;;;5.87;;
11709;SDS011;5911;51.036;6.972;2022-09-30T06:03:27;6.63;;;5.33;;
11709;SDS011;5911;51.036;6.972;2022-09-30T06:05:54;5.53;;;4.97;;
11709;SDS011;5911;51.036;6.972;2022-09-30T06:08:23;5.97;;;5.37;;
11709;SDS011;5911;51.036;6.972;2022-09-30T06:10:52;10.73;;;6.97;;
11709;SDS011;5911;51.036;6.972;2022-09-30T06:13:20;8.80;;;6.00;;
11709;SDS011;5911;51.036;6.972;2022-09-30T06:15:53;6.80;;;5.33;;
11709;SDS011;5911;51.036;6.972;2022-09-30T06:18:22;6.83;;;6.07;;
11709;SDS011;5911;51.036;6.972;2022-09-30T06:20:50;7.37;;;5.73;;
11709;SDS011;5911;51.036;6.972;2022-09-30T06:23:19;7.17;;;5.73;;
11709;SDS011;5911;51.036;6.972;2022-09-30T06:25:48;8.67;;;5.67;;
11709;SDS011;5911;51.036;6.972;2022-09-30T06:28:18;6.40;;;4.87;;
11709;SDS011;5911;51.036;6.972;2022-09-30T06:30:47;6.57;;;5.10;;
11709;SDS011;5911;51.036;6.972;2022-09-30T06:33:15;6.83;;;5.43;;
11709;SDS011;5911;51.036;6.972;2022-09-30T06:35:43;6.13;;;5.03;;
11709;SDS011;5911;51.036;6.972;2022-09-30T06:38:12;7.17;;;5.47;;
11709;SDS011;5911;51.036;6.972;2022-09-30T06:40:41;9.10;;;5.63;;
11709;SDS011;5911;51.036;6.972;2022-09-30T06:43:10;8.43;;;5.80;;
11709;SDS011;5911;51.036;6.972;2022-09-30T06:45:40;7.33;;;5.70;;
11709;SDS011;5911;51.036;6.972;2022-09-30T06:48:08;7.23;;;6.27;;
11709;SDS011;5911;51.036;6.972;2022-09-30T06:50:36;8.57;;;6.27;;
11709;SDS011;5911;51.036;6.972;2022-09-30T06:53:05;7.23;;;5.80;;
11709;SDS011;5911;51.036;6.972;2022-09-30T06:55:34;9.37;;;6.20;;
11709;SDS011;5911;51.036;6.972;2022-09-30T06:58:04;6.87;;;5.80;;
11709;SDS011;5911;51.036;6.972;2022-09-30T07:00:34;10.33;;;7.27;;
11709;SDS011;5911;51.036;6.972;2022-09-30T07:03:04;12.10;;;8.03;;
11709;SDS011;5911;51.036;6.972;2022-09-30T07:05:35;13.17;;;7.97;;
11709;SDS011;5911;51.036;6.972;2022-09-30T07:08:02;12.00;;;7.90;;
11709;SDS011;5911;51.036;6.972;2022-09-30T07:10:31;8.57;;;7.60;;
11709;SDS011;5911;51.036;6.972;2022-09-30T07:12:58;9.20;;;7.43;;
11709;SDS011;5911;51.036;6.972;2022-09-30T07:15:27;9.00;;;7.13;;
11709;SDS011;5911;51.036;6.972;2022-09-30T07:17:55;8.23;;;7.03;;
11709;SDS011;5911;51.036;6.972;2022-09-30T07:20:24;11.37;;;7.00;;
11709;SDS011;5911;51.036;6.972;2022-09-30T07:22:52;8.43;;;6.97;;
11709;SDS011;5911;51.036;6.972;2022-09-30T07:25:20;8.47;;;7.37;;
11709;SDS011;5911;51.036;6.972;2022-09-30T07:27:47;8.97;;;7.27;;
11709;SDS011;5911;51.036;6.972;2022-09-30T07:30:15;11.73;;;7.70;;
11709;SDS011;5911;51.036;6.972;2022-09-30T07:32:52;9.40;;;7.20;;
11709;SDS011;5911;51.036;6.972;2022-09-30T07:35:19;8.33;;;7.17;;
11709;SDS011;5911;51.036;6.972;2022-09-30T07:37:49;10.17;;;7.33;;
11709;SDS011;5911;51.036;6.972;2022-09-30T07:40:16;8.33;;;7.07;;
11709;SDS011;5911;51.036;6.972;2022-09-30T07:42:44;7.57;;;6.77;;
11709;SDS011;5911;51.036;6.972;2022-09-30T07:45:12;7.90;;;7.10;;
11709;SDS011;5911;51.036;6.972;2022-09-30T07:47:44;9.47;;;7.13;;
11709;SDS011;5911;51.036;6.972;2022-09-30T07:50:18;11.37;;;8.40;;
11709;SDS011;5911;51.036;6.972;2022-09-30T07:52:46;15.10;;;7.80;;
11709;SDS011;5911;51.036;6.972;2022-09-30T07:55:15;11.00;;;7.57;;
11709;SDS011;5911;51.036;6.972;2022-09-30T07:57:43;9.17;;;7.53;;
11709;SDS011;5911;51.036;6.972;2022-09-30T08:00:11;13.50;;;7.93;;
11709;SDS011;5911;51.036;6.972;2022-09-30T08:02:59;10.87;;;8.37;;
11709;SDS011;5911;51.036;6.972;2022-09-30T08:05:27;12.00;;;8.10;;
11709;SDS011;5911;51.036;6.972;2022-09-30T08:07:55;11.23;;;8.17;;
11709;SDS011;5911;51.036;6.972;2022-09-30T08:10:24;11.23;;;8.00;;
11709;SDS011;5911;51.036;6.972;2022-09-30T08:12:52;11.03;;;7.53;;
11709;SDS011;5911;51.036;6.972;2022-09-30T08:15:25;10.20;;;7.57;;
11709;SDS011;5911;51.036;6.972;2022-09-30T08:17:53;8.57;;;7.17;;
11709;SDS011;5911;51.036;6.972;2022-09-30T08:20:21;11.07;;;7.57;;
11709;SDS011;5911;51.036;6.972;2022-09-30T08:22:50;8.70;;;7.43;;
11709;SDS011;5911;51.036;6.972;2022-09-30T08:25:18;13.80;;;7.77;;
11709;SDS011;5911;51.036;6.972;2022-09-30T08:27:48;8.77;;;7.67;;
11709;SDS011;5911;51.036;6.972;2022-09-30T08:30:18;9.10;;;7.60;;
11709;SDS011;5911;51.036;6.972;2022-09-30T08:32:48;9.43;;;7.73;;
11709;SDS011;5911;51.036;6.972;2022-09-30T08:35:15;8.63;;;7.00;;
11709;SDS011;5911;51.036;6.972;2022-09-30T08:37:43;10.47;;;6.80;;
11709;SDS011;5911;51.036;6.972;2022-09-30T08:40:16;11.37;;;7.43;;
11709;SDS011;5911;51.036;6.972;2022-09-30T08:42:53;12.33;;;8.17;;
11709;SDS011;5911;51.036;6.972;2022-09-30T08:45:34;11.10;;;8.77;;
11709;SDS011;5911;51.036;6.972;2022-09-30T08:48:18;10.83;;;7.77;;
11709;SDS011;5911;51.036;6.972;2022-09-30T08:50:59;13.47;;;9.27;;
11709;SDS011;5911;51.036;6.972;2022-09-30T08:53:35;10.30;;;7.80;;
11709;SDS011;5911;51.036;6.972;2022-09-30T08:56:07;10.70;;;8.50;;
11709;SDS011;5911;51.036;6.972;2022-09-30T08:58:45;9.80;;;8.20;;
11709;SDS011;5911;51.036;6.972;2022-09-30T09:01:17;8.67;;;7.30;;
11709;SDS011;5911;51.036;6.972;2022-09-30T09:03:50;7.80;;;6.97;;
11709;SDS011;5911;51.036;6.972;2022-09-30T09:06:24;8.27;;;7.43;;
11709;SDS011;5911;51.036;6.972;2022-09-30T09:09:02;12.80;;;7.73;;
11709;SDS011;5911;51.036;6.972;2022-09-30T09:11:42;10.13;;;6.90;;
11709;SDS011;5911;51.036;6.972;2022-09-30T09:14:25;8.60;;;7.00;;
11709;SDS011;5911;51.036;6.972;2022-09-30T09:17:11;9.77;;;8.00;;
11709;SDS011;5911;51.036;6.972;2022-09-30T09:19:55;8.83;;;7.20;;
11709;SDS011;5911;51.036;6.972;2022-09-30T09:22:28;8.10;;;7.20;;
11709;SDS011;5911;51.036;6.972;2022-09-30T09:25:00;7.97;;;7.13;;
11709;SDS011;5911;51.036;6.972;2022-09-30T09:27:29;10.37;;;6.80;;
11709;SDS011;5911;51.036;6.972;2022-09-30T09:30:12;9.67;;;6.17;;
11709;SDS011;5911;51.036;6.972;2022-09-30T09:32:42;7.50;;;6.60;;
11709;SDS011;5911;51.036;6.972;2022-09-30T09:35:24;9.43;;;7.47;;
11709;SDS011;5911;51.036;6.972;2022-09-30T09:38:05;8.23;;;7.10;;
11709;SDS011;5911;51.036;6.972;2022-09-30T09:40:56;13.50;;;8.93;;
11709;SDS011;5911;51.036;6.972;2022-09-30T09:43:36;10.50;;;8.30;;
11709;SDS011;5911;51.036;6.972;2022-09-30T09:46:16;10.67;;;8.33;;
11709;SDS011;5911;51.036;6.972;2022-09-30T09:48:55;12.00;;;8.60;;
11709;SDS011;5911;51.036;6.972;2022-09-30T09:52:00;13.37;;;8.50;;
11709;SDS011;5911;51.036;6.972;2022-09-30T09:54:50;11.07;;;8.00;;
11709;SDS011;5911;51.036;6.972;2022-09-30T09:57:23;8.47;;;7.23;;
11709;SDS011;5911;51.036;6.972;2022-09-30T09:59:53;6.90;;;6.20;;
11709;SDS011;5911;51.036;6.972;2022-09-30T10:02:25;8.00;;;6.60;;
11709;SDS011;5911;51.036;6.972;2022-09-30T10:04:54;10.77;;;8.20;;
11709;SDS011;5911;51.036;6.972;2022-09-30T10:07:26;7.97;;;7.17;;
11709;SDS011;5911;51.036;6.972;2022-09-30T10:10:07;13.17;;;8.63;;
11709;SDS011;5911;51.036;6.972;2022-09-30T10:12:48;8.80;;;6.33;;
11709;SDS011;5911;51.036;6.972;2022-09-30T10:15:20;7.97;;;6.13;;
11709;SDS011;5911;51.036;6.972;2022-09-30T10:17:53;8.20;;;5.70;;
11709;SDS011;5911;51.036;6.972;2022-09-30T10:20:25;10.30;;;5.93;;
11709;SDS011;5911;51.036;6.972;2022-09-30T10:22:59;6.87;;;5.80;;
11709;SDS011;5911;51.036;6.972;2022-09-30T10:25:28;5.57;;;5.07;;
11709;SDS011;5911;51.036;6.972;2022-09-30T10:27:57;5.83;;;4.90;;
11709;SDS011;5911;51.036;6.972;2022-09-30T10:30:41;6.07;;;5.17;;
11709;SDS011;5911;51.036;6.972;2022-09-30T10:33:15;8.23;;;5.57;;
11709;SDS011;5911;51.036;6.972;2022-09-30T10:35:54;5.97;;;5.27;;
11709;SDS011;5911;51.036;6.972;2022-09-30T10:38:27;6.57;;;4.90;;
11709;SDS011;5911;51.036;6.972;2022-09-30T10:40:57;7.37;;;4.90;;
11709;SDS011;5911;51.036;6.972;2022-09-30T10:43:26;6.23;;;4.77;;
11709;SDS011;5911;51.036;6.972;2022-09-30T10:45:58;6.57;;;4.60;;
11709;SDS011;5911;51.036;6.972;2022-09-30T10:48:50;7.20;;;5.57;;
11709;SDS011;5911;51.036;6.972;2022-09-30T10:51:21;8.17;;;5.27;;
11709;SDS011;5911;51.036;6.972;2022-09-30T10:53:52;5.87;;;4.53;;
11709;SDS011;5911;51.036;6.972;2022-09-30T10:56:30;6.07;;;5.28;;
11709;SDS011;5911;51.036;6.972;2022-09-30T10:59:04;8.10;;;4.88;;
11709;SDS011;5911;51.036;6.972;2022-09-30T11:01:43;5.35;;;4.22;;
11709;SDS011;5911;51.036;6.972;2022-09-30T11:04:23;9.40;;;4.73;;
11709;SDS011;5911;51.036;6.972;2022-09-30T11:06:58;9.47;;;5.07;;
11709;SDS011;5911;51.036;6.972;2022-09-30T11:09:35;6.63;;;5.03;;
11709;SDS011;5911;51.036;6.972;2022-09-30T11:12:09;8.07;;;5.03;;
11709;SDS011;5911;51.036;6.972;2022-09-30T11:14:48;6.93;;;4.77;;
11709;SDS011;5911;51.036;6.972;2022-09-30T11:17:28;6.20;;;4.13;;
11709;SDS011;5911;51.036;6.972;2022-09-30T11:20:04;7.70;;;4.85;;
11709;SDS011;5911;51.036;6.972;2022-09-30T11:22:41;8.57;;;5.32;;
11709;SDS011;5911;51.036;6.972;2022-09-30T11:25:14;8.43;;;5.63;;
11709;SDS011;5911;51.036;6.972;2022-09-30T11:27:50;8.18;;;5.28;;
11709;SDS011;5911;51.036;6.972;2022-09-30T11:30:28;7.63;;;4.85;;
11709;SDS011;5911;51.036;6.972;2022-09-30T11:33:10;7.32;;;4.95;;
11709;SDS011;5911;51.036;6.972;2022-09-30T11:35:52;8.38;;;4.93;;
11709;SDS011;5911;51.036;6.972;2022-09-30T11:38:31;6.63;;;4.53;;
11709;SDS011;5911;51.036;6.972;2022-09-30T11:41:12;7.40;;;4.80;;
11709;SDS011;5911;51.036;6.972;2022-09-30T11:43:47;5.20;;;4.70;;
11709;SDS011;5911;51.036;6.972;2022-09-30T11:46:35;6.25;;;4.47;;
11709;SDS011;5911;51.036;6.972;2022-09-30T11:52:13;6.15;;;4.00;;
11709;SDS011;5911;51.036;6.972;2022-09-30T11:54:51;6.53;;;4.00;;
11709;SDS011;5911;51.036;6.972;2022-09-30T11:57:32;5.32;;;3.80;;
11709;SDS011;5911;51.036;6.972;2022-09-30T12:00:05;5.82;;;3.75;;
11709;SDS011;5911;51.036;6.972;2022-09-30T12:02:40;5.07;;;3.50;;
11709;SDS011;5911;51.036;6.972;2022-09-30T12:05:15;4.93;;;3.80;;
11709;SDS011;5911;51.036;6.972;2022-09-30T12:07:49;6.35;;;3.97;;
11709;SDS011;5911;51.036;6.972;2022-09-30T12:10:19;5.68;;;3.85;;
11709;SDS011;5911;51.036;6.972;2022-09-30T12:12:55;6.05;;;3.33;;
11709;SDS011;5911;51.036;6.972;2022-09-30T12:15:27;6.22;;;3.50;;
11709;SDS011;5911;51.036;6.972;2022-09-30T12:17:57;4.60;;;3.60;;
11709;SDS011;5911;51.036;6.972;2022-09-30T12:20:29;6.20;;;3.08;;
11709;SDS011;5911;51.036;6.972;2022-09-30T12:23:07;3.72;;;3.25;;
11709;SDS011;5911;51.036;6.972;2022-09-30T12:25:41;5.05;;;3.30;;
11709;SDS011;5911;51.036;6.972;2022-09-30T12:28:15;5.32;;;3.80;;
11709;SDS011;5911;51.036;6.972;2022-09-30T12:31:26;4.57;;;3.03;;
11709;SDS011;5911;51.036;6.972;2022-09-30T12:34:16;5.53;;;3.83;;
11709;SDS011;5911;51.036;6.972;2022-09-30T12:37:00;4.05;;;3.38;;
11709;SDS011;5911;51.036;6.972;2022-09-30T12:39:42;4.28;;;3.55;;
11709;SDS011;5911;51.036;6.972;2022-09-30T12:42:38;4.53;;;3.05;;
11709;SDS011;5911;51.036;6.972;2022-09-30T12:48:35;5.53;;;3.00;;
11709;SDS011;5911;51.036;6.972;2022-09-30T12:51:05;6.35;;;2.50;;
11709;SDS011;5911;51.036;6.972;2022-09-30T12:53:34;3.38;;;2.10;;
11709;SDS011;5911;51.036;6.972;2022-09-30T12:56:06;3.65;;;2.25;;
11709;SDS011;5911;51.036;6.972;2022-09-30T12:58:40;3.45;;;2.40;;
11709;SDS011;5911;51.036;6.972;2022-09-30T13:01:10;3.50;;;2.15;;
11709;SDS011;5911;51.036;6.972;2022-09-30T13:03:49;4.20;;;2.60;;
11709;SDS011;5911;51.036;6.972;2022-09-30T13:06:19;2.10;;;1.90;;
11709;SDS011;5911;51.036;6.972;2022-09-30T13:11:47;2.42;;;1.77;;
11709;SDS011;5911;51.036;6.972;2022-09-30T13:21:15;5.63;;;2.03;;
11709;SDS011;5911;51.036;6.972;2022-09-30T13:23:48;2.58;;;1.60;;
11709;SDS011;5911;51.036;6.972;2022-09-30T13:26:30;4.82;;;2.35;;
11709;SDS011;5911;51.036;6.972;2022-09-30T13:32:01;2.88;;;2.10;;
11709;SDS011;5911;51.036;6.972;2022-09-30T13:34:31;1.98;;;1.60;;
11709;SDS011;5911;51.036;6.972;2022-09-30T13:37:02;3.05;;;1.60;;
11709;SDS011;5911;51.036;6.972;2022-09-30T13:39:42;2.85;;;1.20;;
11709;SDS011;5911;51.036;6.972;2022-09-30T13:42:16;2.33;;;1.40;;
11709;SDS011;5911;51.036;6.972;2022-09-30T13:44:57;3.28;;;1.67;;
11709;SDS011;5911;51.036;6.972;2022-09-30T13:47:28;2.00;;;1.27;;
11709;SDS011;5911;51.036;6.972;2022-09-30T13:50:02;1.73;;;1.20;;
11709;SDS011;5911;51.036;6.972;2022-09-30T13:52:38;1.25;;;1.10;;
11709;SDS011;5911;51.036;6.972;2022-09-30T13:55:08;2.38;;;1.20;;
11709;SDS011;5911;51.036;6.972;2022-09-30T13:57:45;2.97;;;1.48;;
11709;SDS011;5911;51.036;6.972;2022-09-30T14:00:38;2.75;;;1.45;;
11709;SDS011;5911;51.036;6.972;2022-09-30T14:03:18;1.38;;;1.20;;
11709;SDS011;5911;51.036;6.972;2022-09-30T14:06:06;1.58;;;1.10;;
11709;SDS011;5911;51.036;6.972;2022-09-30T14:08:48;3.20;;;1.37;;
11709;SDS011;5911;51.036;6.972;2022-09-30T14:11:36;1.52;;;1.13;;
11709;SDS011;5911;51.036;6.972;2022-09-30T14:14:43;1.95;;;1.40;;
11709;SDS011;5911;51.036;6.972;2022-09-30T14:17:35;1.60;;;1.33;;
11709;SDS011;5911;51.036;6.972;2022-09-30T14:20:22;3.10;;;1.27;;
11709;SDS011;5911;51.036;6.972;2022-09-30T14:22:57;1.83;;;1.50;;
11709;SDS011;5911;51.036;6.972;2022-09-30T14:25:26;1.75;;;1.38;;
11709;SDS011;5911;51.036;6.972;2022-09-30T14:28:01;3.53;;;1.13;;
11709;SDS011;5911;51.036;6.972;2022-09-30T14:30:31;2.97;;;1.38;;
11709;SDS011;5911;51.036;6.972;2022-09-30T14:33:09;3.22;;;1.27;;
11709;SDS011;5911;51.036;6.972;2022-09-30T14:35:42;1.27;;;1.02;;
11709;SDS011;5911;51.036;6.972;2022-09-30T14:38:29;1.90;;;1.00;;
11709;SDS011;5911;51.036;6.972;2022-09-30T14:41:02;1.83;;;1.40;;
11709;SDS011;5911;51.036;6.972;2022-09-30T14:43:35;1.30;;;1.15;;
11709;SDS011;5911;51.036;6.972;2022-09-30T14:46:09;2.42;;;1.48;;
11709;SDS011;5911;51.036;6.972;2022-09-30T14:48:46;2.97;;;1.50;;
11709;SDS011;5911;51.036;6.972;2022-09-30T14:51:16;1.35;;;1.20;;
11709;SDS011;5911;51.036;6.972;2022-09-30T14:53:52;1.50;;;1.35;;
11709;SDS011;5911;51.036;6.972;2022-09-30T14:56:25;1.90;;;1.50;;
11709;SDS011;5911;51.036;6.972;2022-09-30T14:58:56;3.00;;;1.70;;
11709;SDS011;5911;51.036;6.972;2022-09-30T15:01:24;2.40;;;1.60;;
11709;SDS011;5911;51.036;6.972;2022-09-30T15:03:57;1.88;;;1.40;;
11709;SDS011;5911;51.036;6.972;2022-09-30T15:06:29;1.63;;;1.23;;
11709;SDS011;5911;51.036;6.972;2022-09-30T15:09:00;2.63;;;1.30;;
11709;SDS011;5911;51.036;6.972;2022-09-30T15:11:30;2.58;;;1.50;;
11709;SDS011;5911;51.036;6.972;2022-09-30T15:14:06;3.10;;;1.65;;
11709;SDS011;5911;51.036;6.972;2022-09-30T15:16:43;1.77;;;1.27;;
11709;SDS011;5911;51.036;6.972;2022-09-30T15:19:16;1.85;;;1.25;;
11709;SDS011;5911;51.036;6.972;2022-09-30T15:21:47;2.35;;;1.33;;
11709;SDS011;5911;51.036;6.972;2022-09-30T15:24:17;2.47;;;1.58;;
11709;SDS011;5911;51.036;6.972;2022-09-30T15:26:48;1.52;;;1.35;;
11709;SDS011;5911;51.036;6.972;2022-09-30T15:29:17;2.53;;;1.67;;
11709;SDS011;5911;51.036;6.972;2022-09-30T15:31:45;1.63;;;1.20;;
11709;SDS011;5911;51.036;6.972;2022-09-30T15:34:17;3.22;;;1.40;;
11709;SDS011;5911;51.036;6.972;2022-09-30T15:36:54;2.63;;;1.45;;
11709;SDS011;5911;51.036;6.972;2022-09-30T15:39:25;2.97;;;1.60;;
11709;SDS011;5911;51.036;6.972;2022-09-30T15:42:26;1.80;;;1.40;;
11709;SDS011;5911;51.036;6.972;2022-09-30T15:44:57;1.80;;;1.42;;
11709;SDS011;5911;51.036;6.972;2022-09-30T15:47:25;2.05;;;1.50;;
11709;SDS011;5911;51.036;6.972;2022-09-30T15:49:55;2.78;;;1.58;;
11709;SDS011;5911;51.036;6.972;2022-09-30T15:52:27;3.50;;;1.73;;
11709;SDS011;5911;51.036;6.972;2022-09-30T15:55:01;1.80;;;1.50;;
11709;SDS011;5911;51.036;6.972;2022-09-30T15:58:03;1.50;;;1.35;;
11709;SDS011;5911;51.036;6.972;2022-09-30T16:00:51;1.67;;;1.55;;
11709;SDS011;5911;51.036;6.972;2022-09-30T16:03:23;2.22;;;1.63;;
11709;SDS011;5911;51.036;6.972;2022-09-30T16:06:04;1.55;;;1.45;;
11709;SDS011;5911;51.036;6.972;2022-09-30T16:08:37;1.50;;;1.40;;
11709;SDS011;5911;51.036;6.972;2022-09-30T16:11:09;3.58;;;1.83;;
11709;SDS011;5911;51.036;6.972;2022-09-30T16:13:45;1.67;;;1.40;;